Time;durP1;ratioP1;P1;durP2;ratioP2;P2;SDS_P1;SDS_P2;PMS_P1;PMS_P2;Temp;Humidity;BMP_temperature;BMP_pressure;BME280_temperature;BME280_humidity;BME280_pressure;Samples;Min_cycle;Max_cycle;Signal;HPM_P1;HPM_P2
2021/11/18 00:00:53;;;;;;;;;;;;;;;;;;2099364;28;1453;-90
2021/11/18 00:02:01;;;;;;;;;;;;;;;;;;2091166;28;1337;-90
2021/11/18 00:03:03;;;;;;;;;;;;;;;;;;2081593;28;2060;-91
2021/11/18 00:04:04;;;;;;;;;;;;;;;;;;2075732;28;1229;-90
2021/11/18 00:05:07;;;;;;;;;;;;;;;;;;2091004;28;1297;-90
2021/11/18 00:06:07;;;;;;;;;;;;;;;;;;2082583;28;1419;-91
2021/11/18 00:07:11;;;;;;;;;;;;;;;;;;2090691;28;1510;-90
2021/11/18 00:08:11;;;;;;;;;;;;;;;;;;2090599;28;1355;-90
2021/11/18 00:09:13;;;;;;;;;;;;;;;;;;2090627;28;1387;-90
2021/11/18 00:10:15;;;;;;;;;;;;;;;;;;2090860;28;1281;-90
2021/11/18 00:11:20;;;;;;;;;;;;;;;;;;2082727;28;1266;-90
2021/11/18 00:12:23;;;;;;;;;;;;;;;;;;2083421;28;1290;-91
2021/11/18 00:13:27;;;;;;;;;;;;;;;;;;2095552;28;1871;-90
2021/11/18 00:14:28;;;;;;;;;;;;;;;;;;2091282;28;1305;-90
2021/11/18 00:15:31;;;;;;;;;;;;;;;;;;2098867;28;1360;-91
2021/11/18 00:16:33;;;;;;;;;;;;;;;;;;2098605;28;1906;-90
2021/11/18 00:17:36;;;;;;;;;;;;;;;;;;2098950;28;1322;-90
2021/11/18 00:18:39;;;;;;;;;;;;;;;;;;2090568;28;1340;-91
2021/11/18 00:19:40;;;;;;;;;;;;;;;;;;2090654;28;1366;-90
2021/11/18 00:20:43;;;;;;;;;;;;;;;;;;2090613;28;1291;-90
2021/11/18 00:21:45;;;;;;;;;;;;;;;;;;2090928;28;1317;-91
2021/11/18 00:22:46;;;;;;;;;;;;;;;;;;2090972;28;1220;-92
2021/11/18 00:23:48;;;;;;;;;;;;;;;;;;2098747;28;1989;-91
2021/11/18 00:24:49;;;;;;;;;;;;;;;;;;2083105;28;1187;-90
2021/11/18 00:25:51;;;;;;;;;;;;;;;;;;2090602;28;1364;-90
2021/11/18 00:26:54;;;;;;;;;;;;;;;;;;2099314;28;1223;-90
2021/11/18 00:27:58;;;;;;;;;;;;;;;;;;2098652;28;1236;-90
2021/11/18 00:28:59;;;;;;;;;;;;;;;;;;2098732;28;1196;-91
2021/11/18 00:30:01;;;;;;;;;;;;;;;;;;2090682;28;1266;-90
2021/11/18 00:31:04;;;;;;;;;;;;;;;;;;2082436;28;1462;-90
2021/11/18 00:32:06;;;;;;;;;;;;;;;;;;2075083;28;1188;-90
2021/11/18 00:33:10;;;;;;;;;;;;;;;;;;2090665;28;1180;-90
2021/11/18 00:34:12;;;;;;;;;;;;;;;;;;2083100;28;1175;-90
2021/11/18 00:35:15;;;;;;;;;;;;;;;;;;2090643;28;1331;-90
2021/11/18 00:36:17;;;;;;;;;;;;;;;;;;2082400;28;2114;-90
2021/11/18 00:37:19;;;;;;;;;;;;;;;;;;2082333;28;1369;-90
2021/11/18 00:38:20;;;;;;;;;;;;;;;;;;2090845;28;1269;-90
2021/11/18 00:39:22;;;;;;;;;;;;;;;;;;2090314;28;1344;-90
2021/11/18 00:40:24;;;;;;;;;;;;;;;;;;2090547;28;1129;-90
2021/11/18 00:41:26;;;;;;;;;;;;;;;;;;2094609;28;2040;-91
2021/11/18 00:42:27;;;;;;;;;;;;;;;;;;2099233;28;1352;-90
2021/11/18 00:43:29;;;;;;;;;;;;;;;;;;2090707;28;1510;-90
2021/11/18 00:44:30;;;;;;;;;;;;;;;;;;2091400;28;1443;-89
2021/11/18 00:45:32;;;;;;;;;;;;;;;;;;2090706;28;1360;-89
2021/11/18 00:46:35;;;;;;;;;;;;;;;;;;2098984;28;1845;-89
2021/11/18 00:47:37;;;;;;;;;;;;;;;;;;2099208;28;1215;-89
2021/11/18 00:48:41;;;;;;;;;;;;;;;;;;2098469;28;1848;-89
2021/11/18 00:49:42;;;;;;;;;;;;;;;;;;2099482;28;1338;-89
2021/11/18 00:50:47;;;;;;;;;;;;;;;;;;2098756;28;1538;-89
2021/11/18 00:51:48;;;;;;;;;;;;;;;;;;2098752;28;1270;-89
2021/11/18 00:52:50;;;;;;;;;;;;;;;;;;2090672;28;1312;-90
2021/11/18 00:53:53;;;;;;;;;;;;;;;;;;2090866;28;1217;-89
2021/11/18 00:54:54;;;;;;;;;;;;;;;;;;2090749;28;1324;-89
2021/11/18 00:55:56;;;;;;;;;;;;;;;;;;2082217;28;1302;-90
2021/11/18 00:56:58;;;;;;;;;;;;;;;;;;2090773;28;1913;-89
2021/11/18 00:58:01;;;;;;;;;;;;;;;;;;2092220;28;2058;-89
2021/11/18 00:59:01;;;;;;;;;;;;;;;;;;2098815;28;1322;-89
2021/11/18 01:00:05;;;;;;;;;;;;;;;;;;2098823;28;1118;-89
2021/11/18 01:01:06;;;;;;;;;;;;;;;;;;2091050;28;1416;-89
2021/11/18 01:02:08;;;;;;;;;;;;;;;;;;2091047;28;1327;-89
2021/11/18 01:03:09;;;;;;;;;;;;;;;;;;2098341;28;2002;-89
2021/11/18 01:04:13;;;;;;;;;;;;;;;;;;2098871;28;1244;-89
2021/11/18 01:05:14;;;;;;;;;;;;;;;;;;2090988;28;1330;-89
2021/11/18 01:06:17;;;;;;;;;;;;;;;;;;2099637;28;1872;-88
2021/11/18 01:07:18;;;;;;;;;;;;;;;;;;2090944;28;1318;-88
2021/11/18 01:08:20;;;;;;;;;;;;;;;;;;2098433;28;2057;-88
2021/11/18 01:09:21;;;;;;;;;;;;;;;;;;2090421;28;1138;-89
2021/11/18 01:10:23;;;;;;;;;;;;;;;;;;2098858;28;1377;-89
2021/11/18 01:11:27;;;;;;;;;;;;;;;;;;2089923;28;2112;-89
2021/11/18 01:12:31;;;;;;;;;;;;;;;;;;2091608;28;1515;-88
2021/11/18 01:13:34;;;;;;;;;;;;;;;;;;2090351;28;1382;-90
2021/11/18 01:14:39;;;;;;;;;;;;;;;;;;2091754;28;1241;-87
2021/11/18 01:15:43;;;;;;;;;;;;;;;;;;2090324;28;1253;-89
2021/11/18 01:16:46;;;;;;;;;;;;;;;;;;2082897;28;1906;-89
2021/11/18 01:17:47;;;;;;;;;;;;;;;;;;2090090;28;1365;-88
2021/11/18 01:18:49;;;;;;;;;;;;;;;;;;2082132;28;1233;-88
2021/11/18 01:19:51;;;;;;;;;;;;;;;;;;2074377;28;1230;-88
2021/11/18 01:20:53;;;;;;;;;;;;;;;;;;2074869;28;1277;-88
2021/11/18 01:21:54;;;;;;;;;;;;;;;;;;2082270;28;1587;-88
2021/11/18 01:22:57;;;;;;;;;;;;;;;;;;2082962;28;1979;-88
2021/11/18 01:24:00;;;;;;;;;;;;;;;;;;2099167;28;912;-88
2021/11/18 01:25:14;;;;;;;;;;;;;;;;;;2098886;28;1520;-88
2021/11/18 01:26:20;;;;;;;;;;;;;;;;;;2090866;28;1196;-88
2021/11/18 01:27:21;;;;;;;;;;;;;;;;;;2083400;28;1447;-88
2021/11/18 01:28:22;;;;;;;;;;;;;;;;;;2098833;28;1555;-89
2021/11/18 01:29:24;;;;;;;;;;;;;;;;;;2098833;28;1240;-88
2021/11/18 01:30:26;;;;;;;;;;;;;;;;;;2098582;28;1342;-88
2021/11/18 01:31:28;;;;;;;;;;;;;;;;;;2100161;28;1401;-89
2021/11/18 01:32:33;;;;;;;;;;;;;;;;;;2093062;28;1261;-88
2021/11/18 01:33:35;;;;;;;;;;;;;;;;;;2092070;28;1210;-90
2021/11/18 01:34:37;;;;;;;;;;;;;;;;;;2100535;28;1456;-88
2021/11/18 01:35:39;;;;;;;;;;;;;;;;;;2092161;28;1446;-88
2021/11/18 01:36:42;;;;;;;;;;;;;;;;;;2092561;28;2036;-88
2021/11/18 01:37:44;;;;;;;;;;;;;;;;;;2100337;28;1255;-87
2021/11/18 01:38:47;;;;;;;;;;;;;;;;;;2099940;28;2066;-89
2021/11/18 01:39:56;;;;;;;;;;;;;;;;;;2092282;28;1532;-89
2021/11/18 01:40:59;;;;;;;;;;;;;;;;;;2091410;28;2029;-91
2021/11/18 01:42:06;;;;;;;;;;;;;;;;;;2085173;28;1339;-88
2021/11/18 01:43:09;;;;;;;;;;;;;;;;;;2087127;28;2035;-88
2021/11/18 01:44:12;;;;;;;;;;;;;;;;;;2092618;28;1350;-88
2021/11/18 01:45:16;;;;;;;;;;;;;;;;;;2092302;28;1278;-88
2021/11/18 01:46:19;;;;;;;;;;;;;;;;;;2092381;28;1178;-87
2021/11/18 01:47:22;;;;;;;;;;;;;;;;;;2084193;28;1335;-88
2021/11/18 01:48:22;;;;;;;;;;;;;;;;;;2092437;28;1117;-88
2021/11/18 01:49:25;;;;;;;;;;;;;;;;;;2100205;28;1199;-88
2021/11/18 01:50:29;;;;;;;;;;;;;;;;;;2092669;28;1226;-87
2021/11/18 01:51:35;;;;;;;;;;;;;;;;;;2092513;28;1297;-87
2021/11/18 01:52:35;;;;;;;;;;;;;;;;;;2100413;28;1204;-87
2021/11/18 01:53:39;;;;;;;;;;;;;;;;;;2090176;28;2028;-89
2021/11/18 01:54:44;;;;;;;;;;;;;;;;;;2101147;28;1046;-90
2021/11/18 01:55:47;;;;;;;;;;;;;;;;;;2100149;28;1450;-89
2021/11/18 01:56:50;;;;;;;;;;;;;;;;;;2099434;28;2227;-89
2021/11/18 01:57:52;;;;;;;;;;;;;;;;;;2083824;28;1296;-89
2021/11/18 01:59:15;;;;;;;;;;;;;;;;;;2086821;28;1133;-88
2021/11/18 02:00:23;;;;;;;;;;;;;;;;;;2092035;28;1309;-88
2021/11/18 02:01:26;;;;;;;;;;;;;;;;;;2087910;28;1684;-88
2021/11/18 02:02:27;;;;;;;;;;;;;;;;;;2092427;28;1207;-89
2021/11/18 02:03:55;;;;;;;;;;;;;;;;;;2108162;28;1132;-88
2021/11/18 02:05:12;;;;;;;;;;;;;;;;;;2108667;28;1238;-89
2021/11/18 02:06:16;;;;;;;;;;;;;;;;;;2097131;28;1964;-88
2021/11/18 02:07:19;;;;;;;;;;;;;;;;;;2099958;28;1207;-88
2021/11/18 02:08:23;;;;;;;;;;;;;;;;;;2091812;28;2141;-88
2021/11/18 02:09:38;;;;;;;;;;;;;;;;;;2091453;28;1286;-87
2021/11/18 02:10:42;;;;;;;;;;;;;;;;;;2092000;28;1465;-89
2021/11/18 02:11:44;;;;;;;;;;;;;;;;;;2091596;28;1366;-87
2021/11/18 02:12:48;;;;;;;;;;;;;;;;;;2092365;28;1235;-87
2021/11/18 02:13:49;;;;;;;;;;;;;;;;;;2091897;28;1258;-87
2021/11/18 02:14:53;;;;;;;;;;;;;;;;;;2083791;28;1378;-89
2021/11/18 02:15:54;;;;;;;;;;;;;;;;;;2085101;28;1252;-88
2021/11/18 02:17:00;;;;;;;;;;;;;;;;;;2083826;28;1973;-87
2021/11/18 02:18:02;;;;;;;;;;;;;;;;;;2084293;28;1544;-87
2021/11/18 02:19:09;;;;;;;;;;;;;;;;;;2092671;28;1640;-89
2021/11/18 02:20:19;;;;;;;;;;;;;;;;;;2091873;28;1541;-89
2021/11/18 02:21:22;;;;;;;;;;;;;;;;;;2088272;28;1673;-89
2021/11/18 02:22:23;;;;;;;;;;;;;;;;;;2091601;28;1235;-89
2021/11/18 02:23:28;;;;;;;;;;;;;;;;;;2099924;28;1302;-88
2021/11/18 02:24:32;;;;;;;;;;;;;;;;;;2092270;28;1259;-88
2021/11/18 02:25:37;;;;;;;;;;;;;;;;;;2100193;28;1392;-87
2021/11/18 02:26:38;;;;;;;;;;;;;;;;;;2100215;28;855;-87
2021/11/18 02:27:41;;;;;;;;;;;;;;;;;;2099654;28;1269;-87
2021/11/18 02:28:44;;;;;;;;;;;;;;;;;;2091951;28;1539;-87
2021/11/18 02:29:46;;;;;;;;;;;;;;;;;;2085768;28;1335;-87
2021/11/18 02:30:49;;;;;;;;;;;;;;;;;;2091863;28;1081;-88
2021/11/18 02:31:51;;;;;;;;;;;;;;;;;;2094245;28;1298;-87
2021/11/18 02:32:55;;;;;;;;;;;;;;;;;;2092099;28;1318;-88
2021/11/18 02:33:56;;;;;;;;;;;;;;;;;;2092022;28;1544;-90
2021/11/18 02:35:02;;;;;;;;;;;;;;;;;;2100173;28;1437;-90
2021/11/18 02:36:04;;;;;;;;;;;;;;;;;;2100048;28;1332;-91
2021/11/18 02:37:06;;;;;;;;;;;;;;;;;;2083414;28;1910;-91
2021/11/18 02:38:08;;;;;;;;;;;;;;;;;;2080679;28;2001;-91
2021/11/18 02:39:12;;;;;;;;;;;;;;;;;;2075561;28;1206;-91
2021/11/18 02:40:13;;;;;;;;;;;;;;;;;;2083862;28;1298;-91
2021/11/18 02:41:17;;;;;;;;;;;;;;;;;;2091536;28;1391;-90
2021/11/18 02:42:19;;;;;;;;;;;;;;;;;;2083687;28;1293;-90
2021/11/18 02:43:21;;;;;;;;;;;;;;;;;;2075348;28;1318;-90
2021/11/18 02:44:23;;;;;;;;;;;;;;;;;;2075516;28;1264;-91
2021/11/18 02:45:27;;;;;;;;;;;;;;;;;;2091776;28;1392;-91
2021/11/18 02:46:28;;;;;;;;;;;;;;;;;;2096273;28;1881;-91
2021/11/18 02:47:30;;;;;;;;;;;;;;;;;;2099148;28;1320;-91
2021/11/18 02:48:31;;;;;;;;;;;;;;;;;;2094836;28;1962;-91
2021/11/18 02:49:33;;;;;;;;;;;;;;;;;;2099366;28;1373;-90
2021/11/18 02:50:35;;;;;;;;;;;;;;;;;;2091283;28;1322;-90
2021/11/18 02:51:39;;;;;;;;;;;;;;;;;;2093792;28;2088;-90
2021/11/18 02:52:44;;;;;;;;;;;;;;;;;;2100068;28;1362;-90
2021/11/18 02:53:47;;;;;;;;;;;;;;;;;;2099255;28;1291;-91
2021/11/18 02:54:48;;;;;;;;;;;;;;;;;;2091775;28;1297;-91
2021/11/18 02:55:51;;;;;;;;;;;;;;;;;;2082743;28;1133;-91
2021/11/18 02:56:55;;;;;;;;;;;;;;;;;;2099340;28;1258;-90
2021/11/18 02:58:00;;;;;;;;;;;;;;;;;;2091522;28;1354;-91
2021/11/18 02:59:00;;;;;;;;;;;;;;;;;;2091689;28;1512;-92
2021/11/18 03:00:04;;;;;;;;;;;;;;;;;;2091427;28;1433;-89
2021/11/18 03:01:08;;;;;;;;;;;;;;;;;;2092765;28;1269;-90
2021/11/18 03:02:10;;;;;;;;;;;;;;;;;;2099820;28;1289;-90
2021/11/18 03:03:12;;;;;;;;;;;;;;;;;;2088811;28;1306;-89
2021/11/18 03:04:13;;;;;;;;;;;;;;;;;;2091509;28;1379;-91
2021/11/18 03:05:18;;;;;;;;;;;;;;;;;;2083046;28;1295;-92
2021/11/18 03:06:21;;;;;;;;;;;;;;;;;;2084194;28;1480;-91
2021/11/18 03:07:24;;;;;;;;;;;;;;;;;;2091124;28;1377;-91
2021/11/18 03:08:25;;;;;;;;;;;;;;;;;;2090938;28;2054;-90
2021/11/18 03:09:31;;;;;;;;;;;;;;;;;;2091310;28;1419;-89
2021/11/18 03:10:33;;;;;;;;;;;;;;;;;;2091604;28;1184;-91
2021/11/18 03:11:36;;;;;;;;;;;;;;;;;;2096424;28;2083;-90
2021/11/18 03:12:39;;;;;;;;;;;;;;;;;;2091559;28;1292;-89
2021/11/18 03:13:41;;;;;;;;;;;;;;;;;;2091281;28;1166;-89
2021/11/18 03:14:42;;;;;;;;;;;;;;;;;;2099752;28;1314;-90
2021/11/18 03:15:44;;;;;;;;;;;;;;;;;;2090933;28;1350;-89
2021/11/18 03:16:45;;;;;;;;;;;;;;;;;;2091723;28;1343;-89
2021/11/18 03:17:47;;;;;;;;;;;;;;;;;;2091311;28;1975;-90
2021/11/18 03:18:54;;;;;;;;;;;;;;;;;;2083876;28;1423;-90
2021/11/18 03:19:55;;;;;;;;;;;;;;;;;;2083605;28;1372;-90
2021/11/18 03:20:57;;;;;;;;;;;;;;;;;;2091752;28;1140;-89
2021/11/18 03:21:59;;;;;;;;;;;;;;;;;;2083052;28;1233;-89
2021/11/18 03:23:01;;;;;;;;;;;;;;;;;;2081435;28;1311;-89
2021/11/18 03:24:03;;;;;;;;;;;;;;;;;;2091645;28;1378;-89
2021/11/18 03:25:06;;;;;;;;;;;;;;;;;;2091272;28;1349;-89
2021/11/18 03:26:07;;;;;;;;;;;;;;;;;;2090917;28;2080;-88
2021/11/18 03:27:09;;;;;;;;;;;;;;;;;;2090750;28;1231;-89
2021/11/18 03:28:11;;;;;;;;;;;;;;;;;;2086573;28;1781;-89
2021/11/18 03:29:12;;;;;;;;;;;;;;;;;;2099410;28;1360;-89
2021/11/18 03:30:15;;;;;;;;;;;;;;;;;;2099681;28;1294;-88
2021/11/18 03:31:20;;;;;;;;;;;;;;;;;;2091550;28;1309;-88
2021/11/18 03:32:22;;;;;;;;;;;;;;;;;;2089983;28;1554;-87
2021/11/18 03:33:24;;;;;;;;;;;;;;;;;;2074776;28;2077;-87
2021/11/18 03:34:29;;;;;;;;;;;;;;;;;;2059015;28;1326;-89
2021/11/18 03:35:30;;;;;;;;;;;;;;;;;;2076410;28;1403;-89
2021/11/18 03:36:32;;;;;;;;;;;;;;;;;;2094152;28;1359;-89
2021/11/18 03:37:33;;;;;;;;;;;;;;;;;;2099486;28;1980;-89
2021/11/18 03:38:38;;;;;;;;;;;;;;;;;;2090758;28;1211;-89
2021/11/18 03:39:47;;;;;;;;;;;;;;;;;;2085955;28;1279;-89
2021/11/18 03:40:50;;;;;;;;;;;;;;;;;;2092505;28;1180;-89
2021/11/18 03:41:53;;;;;;;;;;;;;;;;;;2091548;28;1318;-90
2021/11/18 03:42:56;;;;;;;;;;;;;;;;;;2083053;28;1945;-89
2021/11/18 03:43:59;;;;;;;;;;;;;;;;;;2083911;28;1476;-90
2021/11/18 03:45:01;;;;;;;;;;;;;;;;;;2091078;28;1365;-90
2021/11/18 03:46:02;;;;;;;;;;;;;;;;;;2090732;28;1456;-90
2021/11/18 03:47:06;;;;;;;;;;;;;;;;;;2086910;28;1350;-89
2021/11/18 03:48:09;;;;;;;;;;;;;;;;;;2091837;28;1179;-89
2021/11/18 03:49:13;;;;;;;;;;;;;;;;;;2094010;28;1402;-89
2021/11/18 03:50:18;;;;;;;;;;;;;;;;;;2099549;28;1262;-89
2021/11/18 03:51:23;;;;;;;;;;;;;;;;;;2099321;28;1182;-89
2021/11/18 03:52:27;;;;;;;;;;;;;;;;;;2099187;28;1291;-89
2021/11/18 03:53:29;;;;;;;;;;;;;;;;;;2088193;28;1393;-90
2021/11/18 03:54:32;;;;;;;;;;;;;;;;;;2099281;28;1297;-87
2021/11/18 03:55:37;;;;;;;;;;;;;;;;;;2090795;28;1228;-88
2021/11/18 03:56:41;;;;;;;;;;;;;;;;;;2078595;28;1390;-88
2021/11/18 03:57:44;;;;;;;;;;;;;;;;;;2083393;28;1918;-87
2021/11/18 03:58:49;;;;;;;;;;;;;;;;;;2086321;28;1604;-87
2021/11/18 03:59:52;;;;;;;;;;;;;;;;;;2091292;28;1397;-88
2021/11/18 04:00:54;;;;;;;;;;;;;;;;;;2083087;28;1246;-88
2021/11/18 04:01:57;;;;;;;;;;;;;;;;;;2091268;28;1188;-88
2021/11/18 04:02:59;;;;;;;;;;;;;;;;;;2098096;28;1441;-88
2021/11/18 04:04:06;;;;;;;;;;;;;;;;;;2083987;28;1356;-88
2021/11/18 04:05:08;;;;;;;;;;;;;;;;;;2091941;28;1348;-88
2021/11/18 04:06:15;;;;;;;;;;;;;;;;;;2099593;28;1398;-88
2021/11/18 04:07:40;;;;;;;;;;;;;;;;;;2091031;28;1247;-88
2021/11/18 04:08:41;;;;;;;;;;;;;;;;;;2090171;28;2052;-88
2021/11/18 04:09:45;;;;;;;;;;;;;;;;;;2074590;28;1247;-87
2021/11/18 04:10:46;;;;;;;;;;;;;;;;;;2075303;28;1275;-89
2021/11/18 04:11:49;;;;;;;;;;;;;;;;;;2097214;28;1329;-89
2021/11/18 04:12:51;;;;;;;;;;;;;;;;;;2098663;28;1840;-91
2021/11/18 04:13:52;;;;;;;;;;;;;;;;;;2090888;28;1497;-89
2021/11/18 04:14:53;;;;;;;;;;;;;;;;;;2099171;28;1199;-89
2021/11/18 04:15:56;;;;;;;;;;;;;;;;;;2098531;28;1960;-88
2021/11/18 04:17:04;;;;;;;;;;;;;;;;;;2083795;28;1389;-89
2021/11/18 04:18:06;;;;;;;;;;;;;;;;;;2085755;28;1930;-88
2021/11/18 04:19:12;;;;;;;;;;;;;;;;;;2091044;28;1273;-89
2021/11/18 04:20:14;;;;;;;;;;;;;;;;;;2082356;28;1224;-89
2021/11/18 04:21:17;;;;;;;;;;;;;;;;;;2077920;28;2089;-88
2021/11/18 04:22:18;;;;;;;;;;;;;;;;;;2082960;28;1239;-88
2021/11/18 04:23:21;;;;;;;;;;;;;;;;;;2099048;28;1212;-87
2021/11/18 04:24:24;;;;;;;;;;;;;;;;;;2099423;28;1466;-87
2021/11/18 04:25:28;;;;;;;;;;;;;;;;;;2099237;28;1274;-88
2021/11/18 04:26:30;;;;;;;;;;;;;;;;;;2098981;28;1234;-88
2021/11/18 04:27:31;;;;;;;;;;;;;;;;;;2098860;28;1258;-87
2021/11/18 04:28:33;;;;;;;;;;;;;;;;;;2090632;28;1858;-88
2021/11/18 04:29:35;;;;;;;;;;;;;;;;;;2074904;28;1328;-89
2021/11/18 04:30:39;;;;;;;;;;;;;;;;;;2074802;28;1325;-86
2021/11/18 04:31:59;;;;;;;;;;;;;;;;;;2088316;28;1296;-91
2021/11/18 04:33:00;;;;;;;;;;;;;;;;;;2085293;28;1173;-87
2021/11/18 04:34:02;;;;;;;;;;;;;;;;;;2090997;28;1279;-87
2021/11/18 04:35:05;;;;;;;;;;;;;;;;;;2107189;28;1209;-89
2021/11/18 04:36:08;;;;;;;;;;;;;;;;;;2089072;28;2100;-87
2021/11/18 04:37:08;;;;;;;;;;;;;;;;;;2082644;28;1445;-88
2021/11/18 04:38:10;;;;;;;;;;;;;;;;;;2090912;28;1914;-89
2021/11/18 04:39:11;;;;;;;;;;;;;;;;;;2090911;28;780;-86
2021/11/18 04:40:13;;;;;;;;;;;;;;;;;;2090757;28;1305;-86
2021/11/18 04:41:16;;;;;;;;;;;;;;;;;;2096856;28;1332;-87
2021/11/18 04:42:19;;;;;;;;;;;;;;;;;;2107333;28;1115;-85
2021/11/18 04:43:40;;;;;;;;;;;;;;;;;;2101621;28;1379;-86
2021/11/18 04:44:41;;;;;;;;;;;;;;;;;;2107116;28;1520;-86
2021/11/18 04:45:43;;;;;;;;;;;;;;;;;;2098980;28;1632;-88
2021/11/18 04:46:44;;;;;;;;;;;;;;;;;;2092131;28;1866;-87
2021/11/18 04:47:45;;;;;;;;;;;;;;;;;;2099181;28;1310;-87
2021/11/18 04:48:47;;;;;;;;;;;;;;;;;;2099098;28;1640;-87
2021/11/18 04:49:49;;;;;;;;;;;;;;;;;;2099063;28;1270;-87
2021/11/18 04:50:50;;;;;;;;;;;;;;;;;;2091136;28;1206;-87
2021/11/18 04:51:52;;;;;;;;;;;;;;;;;;2082543;28;1270;-88
2021/11/18 04:52:53;;;;;;;;;;;;;;;;;;2090369;28;1307;-88
2021/11/18 04:53:56;;;;;;;;;;;;;;;;;;2090530;28;1373;-87
2021/11/18 04:54:59;;;;;;;;;;;;;;;;;;2090713;28;1200;-88
2021/11/18 04:56:01;;;;;;;;;;;;;;;;;;2090855;28;1560;-88
2021/11/18 04:57:11;;;;;;;;;;;;;;;;;;2082625;28;1527;-88
2021/11/18 04:58:18;;;;;;;;;;;;;;;;;;2078995;28;1910;-87
2021/11/18 04:59:18;;;;;;;;;;;;;;;;;;2082087;28;1320;-87
2021/11/18 05:00:22;;;;;;;;;;;;;;;;;;2090926;28;1352;-87
2021/11/18 05:01:23;;;;;;;;;;;;;;;;;;2090976;28;1313;-87
2021/11/18 05:02:26;;;;;;;;;;;;;;;;;;2082393;28;1601;-88
2021/11/18 05:03:28;;;;;;;;;;;;;;;;;;2079645;28;1165;-87
2021/11/18 05:04:31;;;;;;;;;;;;;;;;;;2090861;28;1465;-88
2021/11/18 05:05:33;;;;;;;;;;;;;;;;;;2100818;28;1373;-88
2021/11/18 05:06:35;;;;;;;;;;;;;;;;;;2100830;28;1374;-87
2021/11/18 05:07:36;;;;;;;;;;;;;;;;;;2100137;28;1433;-88
2021/11/18 05:08:39;;;;;;;;;;;;;;;;;;2100218;28;2026;-88
2021/11/18 05:09:43;;;;;;;;;;;;;;;;;;2101022;28;1430;-92
2021/11/18 05:10:46;;;;;;;;;;;;;;;;;;2099901;28;1341;-86
2021/11/18 05:11:50;;;;;;;;;;;;;;;;;;2108492;28;1204;-86
2021/11/18 05:12:55;;;;;;;;;;;;;;;;;;2099698;28;1498;-86
2021/11/18 05:14:00;;;;;;;;;;;;;;;;;;2084958;28;1076;-85
2021/11/18 05:15:04;;;;;;;;;;;;;;;;;;2083975;28;1609;-87
2021/11/18 05:16:06;;;;;;;;;;;;;;;;;;2095649;28;1321;-86
2021/11/18 05:17:08;;;;;;;;;;;;;;;;;;2092272;28;1362;-85
2021/11/18 05:18:09;;;;;;;;;;;;;;;;;;2091424;28;1980;-85
2021/11/18 05:19:14;;;;;;;;;;;;;;;;;;2084258;28;927;-85
2021/11/18 05:20:15;;;;;;;;;;;;;;;;;;2077238;28;1425;-85
2021/11/18 05:21:19;;;;;;;;;;;;;;;;;;2087198;28;2026;-86
2021/11/18 05:22:20;;;;;;;;;;;;;;;;;;2100658;28;1375;-87
2021/11/18 05:23:23;;;;;;;;;;;;;;;;;;2094913;28;1908;-85
2021/11/18 05:24:30;;;;;;;;;;;;;;;;;;2093286;28;1315;-86
2021/11/18 05:25:34;;;;;;;;;;;;;;;;;;2100618;28;1329;-87
2021/11/18 05:26:37;;;;;;;;;;;;;;;;;;2097557;28;1779;-86
2021/11/18 05:27:39;;;;;;;;;;;;;;;;;;2100170;28;1410;-86
2021/11/18 05:28:43;;;;;;;;;;;;;;;;;;2084276;28;1314;-87
2021/11/18 05:29:44;;;;;;;;;;;;;;;;;;2091824;28;1455;-88
2021/11/18 05:30:52;;;;;;;;;;;;;;;;;;2083897;28;1266;-86
2021/11/18 05:31:53;;;;;;;;;;;;;;;;;;2092868;28;1283;-86
2021/11/18 05:33:15;;;;;;;;;;;;;;;;;;2100505;28;1341;-86
2021/11/18 05:34:15;;;;;;;;;;;;;;;;;;2101257;28;1026;-86
2021/11/18 05:35:17;;;;;;;;;;;;;;;;;;2100285;28;1159;-89
2021/11/18 05:36:19;;;;;;;;;;;;;;;;;;2091935;28;1776;-89
2021/11/18 05:37:21;;;;;;;;;;;;;;;;;;2091797;28;1386;-87
2021/11/18 05:38:24;;;;;;;;;;;;;;;;;;2099773;28;2014;-87
2021/11/18 05:39:26;;;;;;;;;;;;;;;;;;2100436;28;1194;-87
2021/11/18 05:40:27;;;;;;;;;;;;;;;;;;2100392;28;1121;-87
2021/11/18 05:41:31;;;;;;;;;;;;;;;;;;2100149;28;2225;-89
2021/11/18 05:42:34;;;;;;;;;;;;;;;;;;2098301;28;1377;-88
2021/11/18 05:43:40;;;;;;;;;;;;;;;;;;2092020;28;1516;-89
2021/11/18 05:44:48;;;;;;;;;;;;;;;;;;2100416;28;1358;-88
2021/11/18 05:45:51;;;;;;;;;;;;;;;;;;2093256;28;1173;-89
2021/11/18 05:46:53;;;;;;;;;;;;;;;;;;2092194;28;1285;-90
2021/11/18 05:47:56;;;;;;;;;;;;;;;;;;2091233;28;1251;-89
2021/11/18 05:48:57;;;;;;;;;;;;;;;;;;2091321;28;1208;-90
2021/11/18 05:49:59;;;;;;;;;;;;;;;;;;2091132;28;1159;-89
2021/11/18 05:51:01;;;;;;;;;;;;;;;;;;2091067;28;2119;-90
2021/11/18 05:52:04;;;;;;;;;;;;;;;;;;2091874;28;1207;-88
2021/11/18 05:53:05;;;;;;;;;;;;;;;;;;2090752;28;1864;-90
2021/11/18 05:54:08;;;;;;;;;;;;;;;;;;2082829;28;1212;-90
2021/11/18 05:55:10;;;;;;;;;;;;;;;;;;2091887;28;1227;-88
2021/11/18 05:56:13;;;;;;;;;;;;;;;;;;2100003;28;1813;-88
2021/11/18 05:57:14;;;;;;;;;;;;;;;;;;2091369;28;1395;-89
2021/11/18 05:58:16;;;;;;;;;;;;;;;;;;2091525;28;1985;-89
2021/11/18 05:59:17;;;;;;;;;;;;;;;;;;2091242;28;1234;-91
2021/11/18 06:00:22;;;;;;;;;;;;;;;;;;2091293;28;1275;-91
2021/11/18 06:01:29;;;;;;;;;;;;;;;;;;2095106;28;1975;-89
2021/11/18 06:02:30;;;;;;;;;;;;;;;;;;2100216;28;1563;-89
2021/11/18 06:03:31;;;;;;;;;;;;;;;;;;2093296;28;2065;-89
2021/11/18 06:04:34;;;;;;;;;;;;;;;;;;2091499;28;1306;-88
2021/11/18 06:05:40;;;;;;;;;;;;;;;;;;2091416;28;1406;-90
2021/11/18 06:06:43;;;;;;;;;;;;;;;;;;2089589;28;1937;-89
2021/11/18 06:07:44;;;;;;;;;;;;;;;;;;2091273;28;1297;-90
2021/11/18 06:08:46;;;;;;;;;;;;;;;;;;2091343;28;1450;-89
2021/11/18 06:09:47;;;;;;;;;;;;;;;;;;2083282;28;1302;-89
2021/11/18 06:10:50;;;;;;;;;;;;;;;;;;2091370;28;1238;-91
2021/11/18 06:11:51;;;;;;;;;;;;;;;;;;2099907;28;1896;-90
2021/11/18 06:12:54;;;;;;;;;;;;;;;;;;2091544;28;1278;-90
2021/11/18 06:14:11;;;;;;;;;;;;;;;;;;2093629;28;1339;-91
2021/11/18 06:15:12;;;;;;;;;;;;;;;;;;2090837;28;1211;-91
2021/11/18 06:16:15;;;;;;;;;;;;;;;;;;2093142;28;2107;-90
2021/11/18 06:17:17;;;;;;;;;;;;;;;;;;2090652;28;1354;-90
2021/11/18 06:18:20;;;;;;;;;;;;;;;;;;2087002;28;1959;-90
2021/11/18 06:19:21;;;;;;;;;;;;;;;;;;2091011;28;1072;-91
2021/11/18 06:20:22;;;;;;;;;;;;;;;;;;2091441;28;1228;-90
2021/11/18 06:21:24;;;;;;;;;;;;;;;;;;2086898;28;1822;-90
2021/11/18 06:22:27;;;;;;;;;;;;;;;;;;2099659;28;1165;-90
2021/11/18 06:23:40;;;;;;;;;;;;;;;;;;2093826;28;1871;-89
2021/11/18 06:24:40;;;;;;;;;;;;;;;;;;2091542;28;1228;-91
2021/11/18 06:25:43;;;;;;;;;;;;;;;;;;2091236;28;1326;-90
2021/11/18 06:26:43;;;;;;;;;;;;;;;;;;2097678;28;1893;-90
2021/11/18 06:27:51;;;;;;;;;;;;;;;;;;2099190;28;2084;-90
2021/11/18 06:28:51;;;;;;;;;;;;;;;;;;2083038;28;1249;-89
2021/11/18 06:29:53;;;;;;;;;;;;;;;;;;2082714;28;1310;-90
2021/11/18 06:30:55;;;;;;;;;;;;;;;;;;2091197;28;1880;-89
2021/11/18 06:32:01;;;;;;;;;;;;;;;;;;2090993;28;1479;-89
2021/11/18 06:33:02;;;;;;;;;;;;;;;;;;2095487;28;1761;-88
2021/11/18 06:34:03;;;;;;;;;;;;;;;;;;2091763;28;1613;-88
2021/11/18 06:35:05;;;;;;;;;;;;;;;;;;2099524;28;1135;-89
2021/11/18 06:36:06;;;;;;;;;;;;;;;;;;2097789;28;1980;-90
2021/11/18 06:37:07;;;;;;;;;;;;;;;;;;2091018;28;1366;-89
2021/11/18 06:38:14;;;;;;;;;;;;;;;;;;2087592;28;1893;-89
2021/11/18 06:39:15;;;;;;;;;;;;;;;;;;2091159;28;1898;-90
2021/11/18 06:40:19;;;;;;;;;;;;;;;;;;2091610;28;1628;-91
2021/11/18 06:41:21;;;;;;;;;;;;;;;;;;2099148;28;1331;-91
2021/11/18 06:42:22;;;;;;;;;;;;;;;;;;2099496;28;1216;-90
2021/11/18 06:43:43;;;;;;;;;;;;;;;;;;2098842;28;2105;-90
2021/11/18 06:44:48;;;;;;;;;;;;;;;;;;2099523;28;1184;-90
2021/11/18 06:45:50;;;;;;;;;;;;;;;;;;2091238;28;1181;-89
2021/11/18 06:46:53;;;;;;;;;;;;;;;;;;2107125;28;2012;-90
2021/11/18 06:47:55;;;;;;;;;;;;;;;;;;2097835;28;2018;-91
2021/11/18 06:48:57;;;;;;;;;;;;;;;;;;2091249;28;1261;-91
2021/11/18 06:49:58;;;;;;;;;;;;;;;;;;2082846;28;1308;-90
2021/11/18 06:51:00;;;;;;;;;;;;;;;;;;2088688;28;1782;-89
2021/11/18 06:52:01;;;;;;;;;;;;;;;;;;2082900;28;1180;-88
2021/11/18 06:53:03;;;;;;;;;;;;;;;;;;2091251;28;2022;-89
2021/11/18 06:54:04;;;;;;;;;;;;;;;;;;2091018;28;1369;-89
2021/11/18 06:55:08;;;;;;;;;;;;;;;;;;2087766;28;1224;-89
2021/11/18 06:56:10;;;;;;;;;;;;;;;;;;2091342;28;1199;-90
2021/11/18 06:57:12;;;;;;;;;;;;;;;;;;2098274;28;1250;-89
2021/11/18 06:58:13;;;;;;;;;;;;;;;;;;2094102;28;1701;-89
2021/11/18 06:59:15;;;;;;;;;;;;;;;;;;2099265;28;1910;-88
2021/11/18 07:00:17;;;;;;;;;;;;;;;;;;2091177;28;1224;-88
2021/11/18 07:01:19;;;;;;;;;;;;;;;;;;2099136;28;1344;-88
2021/11/18 07:02:20;;;;;;;;;;;;;;;;;;2099201;28;1351;-89
2021/11/18 07:03:24;;;;;;;;;;;;;;;;;;2089800;28;1694;-88
2021/11/18 07:04:25;;;;;;;;;;;;;;;;;;2099238;28;1762;-87
2021/11/18 07:05:27;;;;;;;;;;;;;;;;;;2090679;28;1735;-87
2021/11/18 07:06:29;;;;;;;;;;;;;;;;;;2094333;28;1918;-90
2021/11/18 07:07:32;;;;;;;;;;;;;;;;;;2098727;28;1386;-89
2021/11/18 07:08:32;;;;;;;;;;;;;;;;;;2085169;28;2112;-89
2021/11/18 07:09:37;;;;;;;;;;;;;;;;;;2090789;28;1231;-85
2021/11/18 07:10:49;;;;;;;;;;;;;;;;;;2090916;28;1400;-88
2021/11/18 07:11:49;;;;;;;;;;;;;;;;;;2098349;28;1950;-88
2021/11/18 07:12:52;;;;;;;;;;;;;;;;;;2098666;28;1880;-89
2021/11/18 07:13:54;;;;;;;;;;;;;;;;;;2099069;28;1397;-89
2021/11/18 07:14:56;;;;;;;;;;;;;;;;;;2090709;28;1347;-90
2021/11/18 07:15:57;;;;;;;;;;;;;;;;;;2090557;28;1634;-87
2021/11/18 07:16:59;;;;;;;;;;;;;;;;;;2098392;28;1228;-89
2021/11/18 07:18:00;;;;;;;;;;;;;;;;;;2089910;28;1394;-91
2021/11/18 07:19:05;;;;;;;;;;;;;;;;;;2082522;28;1914;-88